createdAt,value
2022-10-12T00:01:15.711Z,18.38
2022-10-12T00:06:18.601Z,18.37
2022-10-12T00:11:19.913Z,18.39
2022-10-12T00:16:20.155Z,18.39
2022-10-12T00:21:21.634Z,18.33
2022-10-12T00:26:25.442Z,18.33
2022-10-12T00:31:24.276Z,18.25
2022-10-12T00:36:26.625Z,18.27
2022-10-12T00:41:31.573Z,18.27
2022-10-12T00:46:34.381Z,18.25
2022-10-12T00:51:35.276Z,18.23
2022-10-12T00:56:39.693Z,18.13
2022-10-12T01:01:39.916Z,18.08
2022-10-12T01:06:40.051Z,18.02
2022-10-12T01:11:38.767Z,17.98
2022-10-12T01:16:42.226Z,17.93
2022-10-12T01:21:50.305Z,17.86
2022-10-12T01:27:18.373Z,17.86
2022-10-12T01:32:23.258Z,17.88
2022-10-12T01:37:32.524Z,17.88
2022-10-12T01:42:35.581Z,17.88
2022-10-12T01:47:39.359Z,17.88
2022-10-12T01:52:44.712Z,17.89
2022-10-12T01:57:54.119Z,17.89
2022-10-12T02:02:59.951Z,17.84
2022-10-12T02:08:06.905Z,17.83
2022-10-12T02:13:09.303Z,17.84
2022-10-12T02:18:13.461Z,17.84
2022-10-12T02:23:12.641Z,17.84
2022-10-12T02:28:15.429Z,17.84
2022-10-12T02:33:20.997Z,17.86
2022-10-12T02:38:26.720Z,17.89
2022-10-12T02:43:30.684Z,17.88
2022-10-12T02:48:31.344Z,17.83
2022-10-12T02:53:32.223Z,17.81
2022-10-12T02:58:42.484Z,17.78
2022-10-12T03:03:42.764Z,17.73
2022-10-12T03:08:41.600Z,17.73
2022-10-12T03:13:40.304Z,17.68
2022-10-12T03:18:39.480Z,17.65
2022-10-12T03:23:39.887Z,17.64
2022-10-12T03:28:38.673Z,17.65
2022-10-12T03:33:37.445Z,17.64
2022-10-12T03:38:36.075Z,17.66
2022-10-12T03:43:36.417Z,17.67
2022-10-12T03:48:35.141Z,17.64
2022-10-12T03:53:33.934Z,17.59
2022-10-12T03:58:32.636Z,17.58
2022-10-12T04:03:32.740Z,17.50
2022-10-12T04:08:31.549Z,17.48
2022-10-12T04:13:30.323Z,17.46
2022-10-12T04:18:29.151Z,17.47
2022-10-12T04:23:29.491Z,17.48
2022-10-12T04:28:28.351Z,17.44
2022-10-12T04:33:27.109Z,17.41
2022-10-12T04:38:25.850Z,17.38
2022-10-12T04:43:26.355Z,17.26
2022-10-12T04:48:25.982Z,17.24
2022-10-12T04:53:24.869Z,17.24
2022-10-12T04:58:25.060Z,17.28
2022-10-12T05:03:24.060Z,17.34
2022-10-12T05:08:22.740Z,17.39
2022-10-12T05:13:21.463Z,17.44
2022-10-12T05:18:22.439Z,17.49
2022-10-12T05:23:21.207Z,17.46
2022-10-12T05:28:19.955Z,17.48
2022-10-12T05:33:19.026Z,17.47
2022-10-12T05:38:19.231Z,17.55
2022-10-12T05:43:18.206Z,17.65
2022-10-12T05:48:16.907Z,17.70
2022-10-12T05:53:15.708Z,17.79
2022-10-12T05:58:15.807Z,17.78
2022-10-12T06:03:18.329Z,17.75
2022-10-12T06:08:18.087Z,17.81
2022-10-12T06:13:19.851Z,17.95
2022-10-12T06:18:19.487Z,18.01
2022-10-12T06:23:18.275Z,18.06
2022-10-12T06:28:20.207Z,18.20
2022-10-12T06:33:19.301Z,18.29
2022-10-12T06:38:18.004Z,18.41
2022-10-12T06:43:18.209Z,18.52
2022-10-12T06:48:18.776Z,18.67
2022-10-12T06:53:17.519Z,18.77
2022-10-12T06:58:16.274Z,18.90
2022-10-12T07:03:16.711Z,19.03
2022-10-12T07:08:15.515Z,19.15
2022-10-12T07:13:14.242Z,19.28
2022-10-12T07:18:12.925Z,19.38
2022-10-12T07:23:12.983Z,19.48
2022-10-12T07:28:12.297Z,19.65
2022-10-12T07:33:11.146Z,19.81
2022-10-12T07:38:11.080Z,20.09
2022-10-12T07:43:16.157Z,20.15
2022-10-12T07:48:15.127Z,20.35
2022-10-12T07:53:14.248Z,20.45
2022-10-12T07:58:15.510Z,20.65
2022-10-12T08:03:14.267Z,20.80
2022-10-12T08:08:14.291Z,20.98
2022-10-12T08:13:13.006Z,21.26
2022-10-12T08:18:13.166Z,21.59
2022-10-12T08:23:11.836Z,21.82
2022-10-12T08:28:10.956Z,22.08
2022-10-12T08:33:10.586Z,22.37
2022-10-12T08:38:15.115Z,22.91
2022-10-12T08:43:24.054Z,23.09
2022-10-12T08:48:27.461Z,23.31
2022-10-12T08:53:32.169Z,23.33
2022-10-12T08:58:33.379Z,23.35
2022-10-12T09:03:49.089Z,23.24
2022-10-12T09:09:02.635Z,23.38
2022-10-12T09:14:10.156Z,23.44
2022-10-12T09:19:16.719Z,23.43
2022-10-12T09:24:23.293Z,23.53
2022-10-12T09:29:27.878Z,23.49
2022-10-12T09:34:31.981Z,23.49
2022-10-12T09:39:37.138Z,23.46
2022-10-12T09:44:41.312Z,23.74
2022-10-12T09:49:45.752Z,24.04
2022-10-12T09:54:51.601Z,24.19
2022-10-12T09:59:51.029Z,24.56
2022-10-12T10:04:51.354Z,24.33
2022-10-12T10:10:20.347Z,24.45
2022-10-12T10:15:25.626Z,23.92
2022-10-12T10:20:33.371Z,23.92
2022-10-12T10:25:35.317Z,24.10
2022-10-12T10:30:39.619Z,24.48
2022-10-12T10:35:49.320Z,24.22
2022-10-12T10:40:57.172Z,24.03
2022-10-12T10:45:57.965Z,24.01
2022-10-12T10:51:00.467Z,23.85
2022-10-12T10:56:06.850Z,23.64
2022-10-12T11:01:16.035Z,23.35
2022-10-12T11:06:22.287Z,23.18
2022-10-12T11:11:25.845Z,22.86
2022-10-12T11:16:32.976Z,22.71
2022-10-12T11:21:37.561Z,22.45
2022-10-12T11:26:41.312Z,22.35
2022-10-12T11:31:44.620Z,22.50
2022-10-12T11:37:14.297Z,22.57
2022-10-12T11:42:28.129Z,22.47
2022-10-12T11:47:36.137Z,22.27
2022-10-12T11:52:42.033Z,22.45
2022-10-12T11:57:42.639Z,22.69
2022-10-12T12:02:45.426Z,22.97
2022-10-12T12:07:49.660Z,23.05
2022-10-12T12:13:19.368Z,23.13
2022-10-12T12:18:20.503Z,23.41
2022-10-12T12:23:22.291Z,23.68
2022-10-12T12:28:25.311Z,23.95
2022-10-12T12:33:31.413Z,23.91
2022-10-12T12:38:34.786Z,23.95
2022-10-12T12:43:57.831Z,24.30
2022-10-12T12:49:08.370Z,24.45
2022-10-12T12:54:14.954Z,24.68
2022-10-12T12:59:46.105Z,25.10
2022-10-12T13:05:06.068Z,25.39
2022-10-12T13:10:15.706Z,25.15
2022-10-12T13:15:30.045Z,25.18
2022-10-12T13:20:33.670Z,25.21
2022-10-12T13:25:37.206Z,24.88
2022-10-12T13:30:44.502Z,24.75
2022-10-12T13:35:50.581Z,24.67
2022-10-12T13:40:54.666Z,24.73
2022-10-12T13:45:54.938Z,24.80
2022-10-12T13:50:59.391Z,24.48
2022-10-12T13:56:02.810Z,24.16
2022-10-12T14:01:04.058Z,24.22
2022-10-12T14:06:04.449Z,24.20
2022-10-12T14:11:05.620Z,24.00
2022-10-12T14:16:06.926Z,23.90
2022-10-12T14:21:12.583Z,23.76
2022-10-12T14:26:25.290Z,23.68
2022-10-12T14:31:52.418Z,23.51
2022-10-12T14:37:01.173Z,23.32
2022-10-12T14:42:03.664Z,23.17
2022-10-12T14:47:11.794Z,22.91
2022-10-12T14:52:18.671Z,22.73
2022-10-12T14:57:18.861Z,22.53
2022-10-12T15:02:29.958Z,22.40
2022-10-12T15:07:32.186Z,22.35
2022-10-12T15:12:32.595Z,22.34
2022-10-12T15:17:32.727Z,22.34
2022-10-12T15:22:31.708Z,22.36
2022-10-12T15:27:30.700Z,22.33
2022-10-12T15:32:29.641Z,22.18
2022-10-12T15:37:31.538Z,22.14
2022-10-12T15:42:30.288Z,22.02
2022-10-12T15:47:29.056Z,21.93
2022-10-12T15:52:32.396Z,21.85
2022-10-12T15:57:34.368Z,21.76
2022-10-12T16:02:34.320Z,21.65
2022-10-12T16:07:34.580Z,21.61
2022-10-12T16:12:33.417Z,21.55
2022-10-12T16:17:32.190Z,21.52
2022-10-12T16:22:31.011Z,21.47
2022-10-12T16:27:31.697Z,21.43
2022-10-12T16:32:30.535Z,21.38
2022-10-12T16:37:30.025Z,21.34
2022-10-12T16:42:30.321Z,21.28
2022-10-12T16:47:29.305Z,21.22
2022-10-12T16:52:28.144Z,21.15
2022-10-12T16:57:27.359Z,21.09
2022-10-12T17:02:28.590Z,21.04
2022-10-12T17:07:27.573Z,20.98
2022-10-12T17:12:27.966Z,20.93
2022-10-12T17:17:28.112Z,20.86
2022-10-12T17:22:26.898Z,20.78
2022-10-12T17:27:32.084Z,20.70
2022-10-12T17:33:21.935Z,20.63
2022-10-12T17:38:32.445Z,20.30
2022-10-12T17:43:31.288Z,20.17
2022-10-12T17:48:31.712Z,19.99
2022-10-12T17:53:30.510Z,19.87
2022-10-12T17:58:29.408Z,19.77
2022-10-12T18:03:28.764Z,19.62
2022-10-12T18:08:28.983Z,19.55
2022-10-12T18:13:27.920Z,19.53
2022-10-12T18:18:27.126Z,19.43
2022-10-12T18:23:25.890Z,19.44
2022-10-12T18:28:27.676Z,19.51
2022-10-12T18:33:31.946Z,19.55
2022-10-12T18:38:32.796Z,19.51
2022-10-12T18:43:33.824Z,19.39
2022-10-12T18:48:33.518Z,19.32
2022-10-12T18:53:32.555Z,19.24
2022-10-12T18:58:33.048Z,19.20
2022-10-12T19:03:39.208Z,19.27
2022-10-12T19:08:38.324Z,19.27
2022-10-12T19:13:39.912Z,19.33
2022-10-12T19:18:41.432Z,19.28
2022-10-12T19:23:40.757Z,19.28
2022-10-12T19:28:41.162Z,19.15
2022-10-12T19:33:42.001Z,18.98
2022-10-12T19:38:47.774Z,18.82
2022-10-12T19:43:53.117Z,18.73
2022-10-12T19:48:55.364Z,18.70
2022-10-12T19:53:55.847Z,18.63
2022-10-12T19:59:00.791Z,18.52
2022-10-12T20:04:03.503Z,18.49
2022-10-12T20:09:03.286Z,18.41
2022-10-12T20:14:09.976Z,18.33
2022-10-12T20:19:09.086Z,18.25
2022-10-12T20:24:10.448Z,18.37
2022-10-12T20:29:10.591Z,18.42
2022-10-12T20:34:09.389Z,18.37
2022-10-12T20:39:08.148Z,18.35
2022-10-12T20:44:06.857Z,18.32
2022-10-12T20:49:06.949Z,18.28
2022-10-12T20:54:08.930Z,18.28
2022-10-12T20:59:07.723Z,18.26
2022-10-12T21:04:08.874Z,18.25
2022-10-12T21:09:07.593Z,18.15
2022-10-12T21:14:06.429Z,18.06
2022-10-12T21:19:05.319Z,18.02
2022-10-12T21:24:08.278Z,18.01
2022-10-12T21:29:07.565Z,17.89
2022-10-12T21:34:07.901Z,17.90
2022-10-12T21:39:12.884Z,17.90
2022-10-12T21:44:12.774Z,17.95
2022-10-12T21:49:12.467Z,17.91
2022-10-12T21:54:12.575Z,17.91
2022-10-12T21:59:11.790Z,17.90
2022-10-12T22:04:14.443Z,17.90
2022-10-12T22:09:16.701Z,17.88
2022-10-12T22:14:17.535Z,17.81
2022-10-12T22:19:19.693Z,17.84
2022-10-12T22:24:21.090Z,17.78
2022-10-12T22:29:19.883Z,17.76
2022-10-12T22:34:18.593Z,17.75
2022-10-12T22:39:17.871Z,17.71
2022-10-12T22:44:19.859Z,17.58
2022-10-12T22:49:18.666Z,17.50
2022-10-12T22:54:17.440Z,17.47
2022-10-12T22:59:17.388Z,17.45
2022-10-12T23:04:17.569Z,17.41
2022-10-12T23:09:16.272Z,17.34
2022-10-12T23:14:14.992Z,17.28
2022-10-12T23:19:13.715Z,17.20
2022-10-12T23:24:13.792Z,17.15
2022-10-12T23:29:12.448Z,17.04
2022-10-12T23:34:12.410Z,17.00
2022-10-12T23:39:11.313Z,16.95
2022-10-12T23:44:11.452Z,16.91
2022-10-12T23:49:10.343Z,16.86
2022-10-12T23:54:09.549Z,16.85
2022-10-12T23:59:08.273Z,16.80
